Time;durP1;ratioP1;P1;durP2;ratioP2;P2;SDS_P1;SDS_P2;PMS_P1;PMS_P2;Temp;Humidity;BMP_temperature;BMP_pressure;BME280_temperature;BME280_humidity;BME280_pressure;Samples;Min_cycle;Max_cycle;Signal;HPM_P1;HPM_P2
2022/08/16 00:00:32;;;;;;;5.75;3.38;;;;;;;19.16;51.49;99076.66;10398735;28;20461;-59
2022/08/16 00:05:40;;;;;;;4.95;3.33;;;;;;;19.18;51.53;99090.59;10398789;28;20057;-59
2022/08/16 00:10:49;;;;;;;8.20;3.50;;;;;;;19.18;51.17;99089.75;10398749;28;20081;-59
2022/08/16 00:15:54;;;;;;;8.45;3.90;;;;;;;19.10;51.89;99095.91;10398159;28;20092;-59
2022/08/16 00:20:56;;;;;;;6.72;3.58;;;;;;;18.84;51.81;99107.59;10398647;28;20046;-59
2022/08/16 00:25:57;;;;;;;5.43;3.40;;;;;;;18.68;52.85;99108.41;10398295;28;20097;-59
2022/08/16 00:31:19;;;;;;;6.05;3.58;;;;;;;18.64;53.07;99104.44;10398086;28;20050;-59
2022/08/16 00:36:25;;;;;;;6.35;3.58;;;;;;;18.63;53.27;99106.25;10398106;28;20319;-59
2022/08/16 00:41:29;;;;;;;6.95;3.35;;;;;;;18.77;52.66;99106.63;10397389;28;20655;-59
2022/08/16 00:46:46;;;;;;;6.57;4.15;;;;;;;18.52;53.72;99100.44;10397139;28;20560;-59
2022/08/16 00:52:03;;;;;;;6.40;3.60;;;;;;;18.40;53.85;99107.03;10396955;28;20767;-59
2022/08/16 00:57:26;;;;;;;8.10;3.50;;;;;;;18.51;53.73;99107.53;10396446;28;20063;-60
2022/08/16 01:02:48;;;;;;;6.45;3.47;;;;;;;18.52;53.57;99105.72;10396312;28;20048;-60
2022/08/16 01:07:52;;;;;;;5.50;3.40;;;;;;;18.45;53.37;99105.53;10396474;28;20075;-60
2022/08/16 01:12:54;;;;;;;6.20;3.58;;;;;;;18.49;53.53;99108.69;10395849;28;20383;-59
2022/08/16 01:17:57;;;;;;;7.28;3.78;;;;;;;18.53;53.34;99110.03;10396053;28;20073;-59
2022/08/16 01:23:06;;;;;;;6.72;3.70;;;;;;;18.46;53.58;99116.97;10395662;28;20049;-60
2022/08/16 01:28:13;;;;;;;6.95;3.97;;;;;;;18.23;53.82;99110.59;10395935;28;20052;-60
2022/08/16 01:33:21;;;;;;;6.28;3.78;;;;;;;18.04;54.26;99108.16;10395616;28;20052;-60
2022/08/16 01:38:26;;;;;;;7.32;3.70;;;;;;;18.10;54.34;99112.81;10395007;28;20045;-59
2022/08/16 01:43:30;;;;;;;5.15;3.75;;;;;;;18.11;54.23;99114.47;10394639;28;20437;-60
2022/08/16 01:48:33;;;;;;;5.47;3.60;;;;;;;18.06;54.44;99101.72;10395384;28;20054;-60
2022/08/16 01:53:36;;;;;;;7.20;3.85;;;;;;;17.91;54.88;99107.78;10394311;28;20060;-60
2022/08/16 01:58:41;;;;;;;6.68;3.90;;;;;;;17.53;55.10;99103.75;10393907;28;20054;-60
2022/08/16 02:03:49;;;;;;;5.90;3.95;;;;;;;16.96;55.63;99108.56;10394298;28;20440;-60
2022/08/16 02:08:53;;;;;;;7.93;3.97;;;;;;;17.14;56.31;99105.09;10393736;28;20054;-59
2022/08/16 02:13:55;;;;;;;5.75;4.00;;;;;;;17.31;56.65;99107.69;10394304;28;20069;-60
2022/08/16 02:18:58;;;;;;;5.75;4.15;;;;;;;17.37;56.24;99103.63;10393716;28;20069;-60
2022/08/16 02:23:59;;;;;;;6.63;4.10;;;;;;;17.15;56.73;99099.66;10393891;28;20049;-60
2022/08/16 02:29:01;;;;;;;9.35;4.50;;;;;;;16.88;57.13;99105.03;10392227;28;20140;-60
2022/08/16 02:34:04;;;;;;;5.82;4.00;;;;;;;16.87;57.35;99100.72;10393212;28;20152;-60
2022/08/16 02:39:09;;;;;;;6.03;3.80;;;;;;;16.94;57.54;99101.78;10393211;28;20053;-59
2022/08/16 02:44:12;;;;;;;6.25;4.50;;;;;;;16.96;57.56;99110.38;10392656;28;20057;-60
2022/08/16 02:49:14;;;;;;;6.68;4.38;;;;;;;17.11;57.54;99110.66;10393026;28;20049;-59
2022/08/16 02:54:17;;;;;;;6.40;3.88;;;;;;;17.18;56.75;99103.81;10392429;28;20429;-60
2022/08/16 02:59:24;;;;;;;6.03;4.18;;;;;;;17.07;56.97;99104.88;10392488;28;20131;-60
2022/08/16 03:04:40;;;;;;;6.22;4.43;;;;;;;17.10;57.29;99101.91;10392417;28;20069;-59
2022/08/16 03:09:53;;;;;;;7.53;4.22;;;;;;;16.99;57.53;99105.63;10399365;28;20103;-59
2022/08/16 03:14:55;;;;;;;7.80;4.40;;;;;;;17.01;57.46;99103.69;10400907;28;20081;-59
2022/08/16 03:19:56;;;;;;;7.10;4.22;;;;;;;16.97;57.63;99097.03;10401288;28;20077;-59
2022/08/16 03:25:08;;;;;;;7.05;4.50;;;;;;;16.99;57.46;99115.38;10400580;28;20485;-59
2022/08/16 03:30:15;;;;;;;5.57;4.00;;;;;;;16.95;57.54;99112.22;10399941;28;20049;-59
2022/08/16 03:35:25;;;;;;;7.53;4.13;;;;;;;16.93;57.57;99114.16;10399942;28;20397;-59
2022/08/16 03:40:35;;;;;;;7.72;4.93;;;;;;;16.64;57.75;99116.19;10400295;28;20057;-59
2022/08/16 03:45:39;;;;;;;7.75;4.43;;;;;;;16.55;58.00;99119.72;10398104;28;20501;-59
2022/08/16 03:50:41;;;;;;;6.85;4.30;;;;;;;16.34;58.60;99128.84;10399535;28;20049;-59
2022/08/16 03:56:00;;;;;;;6.18;4.10;;;;;;;16.48;58.37;99120.47;10383961;28;20057;-59
2022/08/16 04:01:04;;;;;;;5.55;4.20;;;;;;;16.63;58.29;99117.16;10398765;28;20562;-59
2022/08/16 04:06:06;;;;;;;6.03;4.22;;;;;;;16.72;57.81;99129.47;10399077;28;20049;-59
2022/08/16 04:11:09;;;;;;;7.15;4.75;;;;;;;16.72;57.99;99128.63;10398468;28;20513;-59
2022/08/16 04:16:12;;;;;;;9.00;4.60;;;;;;;16.69;57.89;99128.94;10398154;28;20548;-59
2022/08/16 04:21:33;;;;;;;10.15;4.38;;;;;;;16.55;58.44;99129.47;10397576;28;20089;-58
2022/08/16 04:26:35;;;;;;;6.72;3.88;;;;;;;16.58;58.22;99126.50;10398112;28;20441;-59
2022/08/16 04:31:48;;;;;;;6.35;4.20;;;;;;;16.70;58.36;99134.06;10397874;28;20041;-59
2022/08/16 04:36:59;;;;;;;11.65;4.88;;;;;;;16.75;58.10;99134.44;10396747;28;20053;-59
2022/08/16 04:42:04;;;;;;;6.00;4.20;;;;;;;16.78;57.84;99138.59;10397970;28;20048;-59
2022/08/16 04:47:12;;;;;;;6.68;4.10;;;;;;;16.81;58.03;99144.41;10396921;28;20053;-59
2022/08/16 04:52:24;;;;;;;6.47;4.10;;;;;;;17.03;57.48;99140.50;10397073;28;20054;-58
2022/08/16 04:57:36;;;;;;;6.70;4.30;;;;;;;17.65;55.87;99132.41;10395044;28;20146;-59
2022/08/16 05:02:39;;;;;;;7.90;4.35;;;;;;;17.62;55.93;99140.69;10396303;28;20049;-58
2022/08/16 05:07:43;;;;;;;6.85;4.50;;;;;;;17.38;56.73;99140.50;10396154;28;20329;-59
2022/08/16 05:13:03;;;;;;;6.88;4.53;;;;;;;17.98;55.79;99144.03;10395037;28;20212;-58
2022/08/16 05:18:07;;;;;;;6.65;4.40;;;;;;;18.25;54.65;99164.19;10396242;28;20136;-58
2022/08/16 05:23:16;;;;;;;8.50;4.25;;;;;;;18.26;54.93;99163.22;10396223;28;20050;-59
2022/08/16 05:28:18;;;;;;;6.97;4.25;;;;;;;18.29;54.65;99152.31;10395075;28;20138;-59
2022/08/16 05:33:20;;;;;;;5.05;3.88;;;;;;;18.30;55.03;99167.22;10393409;28;20069;-59
2022/08/16 05:38:29;;;;;;;7.25;3.80;;;;;;;18.54;54.44;99177.91;10395380;28;20132;-59
2022/08/16 05:43:39;;;;;;;5.47;3.92;;;;;;;18.57;54.34;99185.50;10394746;28;20516;-58
2022/08/16 05:48:47;;;;;;;5.85;4.47;;;;;;;18.39;54.83;99182.13;10394389;28;20053;-58
2022/08/16 05:53:56;;;;;;;5.78;4.07;;;;;;;18.42;55.04;99172.03;10395236;28;20937;-59
2022/08/16 05:58:58;;;;;;;7.63;4.80;;;;;;;18.61;54.42;99181.53;10395674;28;20147;-59
2022/08/16 06:04:00;;;;;;;8.75;5.57;;;;;;;18.53;54.95;99192.94;10393729;28;20053;-59
2022/08/16 06:09:02;;;;;;;6.03;4.32;;;;;;;18.70;54.56;99185.91;10394436;28;20390;-59
2022/08/16 06:14:05;;;;;;;8.27;5.30;;;;;;;18.91;54.04;99191.56;10393871;28;20145;-58
2022/08/16 06:19:07;;;;;;;8.93;5.38;;;;;;;19.03;53.73;99192.94;10393458;28;20145;-59
2022/08/16 06:24:09;;;;;;;10.05;5.63;;;;;;;18.84;54.42;99187.91;10393773;28;20127;-59
2022/08/16 06:29:31;;;;;;;10.82;5.20;;;;;;;18.60;55.21;99196.63;10394330;28;20053;-59
2022/08/16 06:34:33;;;;;;;8.30;4.93;;;;;;;18.99;54.62;99190.78;10393130;28;20137;-59
2022/08/16 06:39:54;;;;;;;7.03;5.55;;;;;;;19.06;54.41;99174.06;10393838;28;20057;-59
2022/08/16 06:44:56;;;;;;;9.45;5.85;;;;;;;19.03;54.46;99181.53;10393163;28;20053;-59
2022/08/16 06:49:58;;;;;;;6.45;4.80;;;;;;;19.18;54.15;99191.31;10392602;28;20056;-58
2022/08/16 06:54:59;;;;;;;8.88;5.00;;;;;;;19.27;54.22;99195.66;10392644;28;20140;-59
2022/08/16 07:00:11;;;;;;;8.65;5.45;;;;;;;19.62;53.45;99201.63;10392818;28;20573;-59
2022/08/16 07:05:25;;;;;;;10.80;5.93;;;;;;;19.72;53.35;99191.66;10392512;28;20057;-59
2022/08/16 07:10:40;;;;;;;9.30;6.15;;;;;;;19.78;53.26;99202.44;10392334;28;20053;-59
2022/08/16 07:15:43;;;;;;;7.88;5.10;;;;;;;19.77;53.58;99207.91;10392553;28;20128;-59
2022/08/16 07:20:52;;;;;;;9.33;5.20;;;;;;;19.92;53.12;99206.25;10392443;28;20060;-59
2022/08/16 07:25:54;;;;;;;7.43;5.07;;;;;;;20.27;52.23;99201.34;10392759;28;20542;-59
2022/08/16 07:31:01;;;;;;;8.20;4.53;;;;;;;20.63;51.83;99201.75;10392744;28;20053;-59
2022/08/16 07:36:05;;;;;;;9.73;4.80;;;;;;;20.80;51.50;99200.69;10391782;28;20054;-59
2022/08/16 07:41:07;;;;;;;6.38;4.30;;;;;;;21.45;50.68;99194.97;10392146;28;20092;-59
2022/08/16 07:46:11;;;;;;;9.40;4.05;;;;;;;22.66;48.67;99191.88;10390420;28;20071;-59
2022/08/16 07:51:35;;;;;;;9.75;3.75;;;;;;;23.76;46.20;99187.94;10391733;28;20506;-59
2022/08/16 07:56:37;;;;;;;6.30;3.72;;;;;;;24.55;44.60;99190.09;10398892;28;20065;-59
2022/08/16 08:01:39;;;;;;;6.95;3.50;;;;;;;25.07;43.42;99186.81;10399220;28;20133;-59
2022/08/16 08:06:42;;;;;;;6.55;3.45;;;;;;;25.35;42.71;99179.50;10398711;28;20127;-60
2022/08/16 08:11:44;;;;;;;4.78;2.97;;;;;;;26.18;41.35;99183.41;10399001;28;20049;-59
2022/08/16 08:17:03;;;;;;;4.40;3.00;;;;;;;26.85;39.87;99175.78;10397684;28;20056;-59
2022/08/16 08:22:09;;;;;;;7.22;2.83;;;;;;;27.33;38.63;99163.53;10398357;28;20160;-59
2022/08/16 08:27:22;;;;;;;8.52;3.17;;;;;;;27.89;37.60;99168.88;10398731;28;20271;-59
2022/08/16 08:32:27;;;;;;;4.28;2.72;;;;;;;28.48;36.24;99173.66;10386081;28;20080;-59
2022/08/16 08:37:48;;;;;;;5.63;3.00;;;;;;;28.01;36.91;99160.91;10398464;28;20128;-59
2022/08/16 08:42:58;;;;;;;6.93;3.00;;;;;;;27.71;36.73;99168.00;10396235;28;20476;-59
2022/08/16 08:48:13;;;;;;;4.32;2.50;;;;;;;28.01;36.31;99161.72;10397698;28;20139;-59
2022/08/16 08:53:35;;;;;;;4.80;3.00;;;;;;;27.63;36.75;99168.28;10397225;28;20049;-59
2022/08/16 08:58:38;;;;;;;4.65;3.00;;;;;;;28.00;36.35;99178.06;10396854;28;20064;-59
2022/08/16 09:03:55;;;;;;;5.05;2.50;;;;;;;28.38;35.45;99186.78;10396945;28;20049;-59
2022/08/16 09:08:58;;;;;;;6.32;2.80;;;;;;;28.62;35.12;99175.16;10396399;28;20075;-59
2022/08/16 09:14:00;;;;;;;4.40;2.58;;;;;;;29.01;34.71;99180.03;10396810;28;20478;-59
2022/08/16 09:19:02;;;;;;;5.72;2.70;;;;;;;29.36;33.93;99179.34;10396423;28;20136;-60
2022/08/16 09:24:05;;;;;;;6.13;2.92;;;;;;;28.97;34.24;99178.03;10396123;28;20065;-59
2022/08/16 09:29:11;;;;;;;9.27;2.95;;;;;;;28.82;34.54;99180.28;10395676;28;20514;-59
2022/08/16 09:34:24;;;;;;;5.60;2.55;;;;;;;29.18;33.22;99188.28;10395526;28;20382;-60
2022/08/16 09:39:28;;;;;;;6.60;2.72;;;;;;;29.02;33.31;99192.47;10395772;28;20095;-59
2022/08/16 09:44:43;;;;;;;6.35;3.33;;;;;;;28.81;33.97;99184.81;10394864;28;20072;-59
2022/08/16 09:50:10;;;;;;;6.97;3.20;;;;;;;28.95;33.77;99186.31;10394543;28;20045;-59
2022/08/16 09:55:13;;;;;;;5.97;2.55;;;;;;;28.24;34.53;99177.19;10394499;28;20085;-59
2022/08/16 10:00:15;;;;;;;5.15;2.60;;;;;;;28.35;34.42;99179.19;10394275;28;20407;-59
2022/08/16 10:05:36;;;;;;;4.47;2.00;;;;;;;28.82;33.22;99175.72;10394705;28;20049;-60
2022/08/16 10:13:10;;;;;;;7.57;2.60;;;;;;;28.76;33.11;99175.78;10394397;28;20119;-59
2022/08/16 10:16:05;;;;;;;7.65;2.70;;;;;;;28.74;33.04;99162.56;10393826;28;20060;-59
2022/08/16 10:21:10;;;;;;;5.82;2.45;;;;;;;28.81;32.76;99168.69;10394056;28;20061;-59
2022/08/16 10:26:14;;;;;;;8.18;2.38;;;;;;;29.20;31.65;99170.03;10393235;28;20049;-59
2022/08/16 10:31:36;;;;;;;6.43;2.22;;;;;;;28.96;31.98;99171.84;10393242;28;20771;-59
2022/08/16 10:36:45;;;;;;;6.18;2.55;;;;;;;28.75;32.39;99166.91;10393101;28;20520;-60
2022/08/16 10:41:54;;;;;;;7.05;2.30;;;;;;;29.09;32.19;99166.25;10392839;28;20049;-59
2022/08/16 10:46:59;;;;;;;6.03;2.10;;;;;;;29.10;31.60;99161.69;10392789;28;20057;-59
2022/08/16 10:52:03;;;;;;;7.00;2.33;;;;;;;29.17;30.69;99162.44;10392895;28;20115;-60
2022/08/16 10:57:20;;;;;;;6.15;2.03;;;;;;;28.55;31.77;99160.94;10392239;28;20414;-59
2022/08/16 11:02:25;;;;;;;6.35;2.10;;;;;;;28.75;31.65;99174.13;10392991;28;20053;-59
2022/08/16 11:07:49;;;;;;;3.38;1.90;;;;;;;29.23;30.89;99166.88;10392753;28;20060;-59
2022/08/16 11:12:54;;;;;;;3.30;1.85;;;;;;;29.38;30.16;99163.78;10392216;28;20049;-59
2022/08/16 11:17:55;;;;;;;4.15;2.10;;;;;;;29.63;29.32;99159.03;10392584;28;21113;-60
2022/08/16 11:23:17;;;;;;;3.42;1.85;;;;;;;29.42;29.64;99167.69;10392357;28;20049;-59
2022/08/16 11:28:21;;;;;;;3.80;1.90;;;;;;;28.66;30.93;99170.97;10394339;28;20539;-59
2022/08/16 11:33:43;;;;;;;6.43;1.92;;;;;;;28.99;30.69;99173.25;10400159;28;20076;-60
2022/08/16 11:38:54;;;;;;;7.97;1.90;;;;;;;29.28;30.04;99167.00;10400302;28;20076;-59
2022/08/16 11:43:59;;;;;;;9.27;2.08;;;;;;;29.59;29.83;99174.00;10382771;28;20297;-59
2022/08/16 11:49:02;;;;;;;3.03;1.83;;;;;;;29.09;29.52;99173.53;10399061;28;20472;-59
2022/08/16 11:54:04;;;;;;;3.35;1.90;;;;;;;28.83;29.24;99176.53;10398905;28;20148;-59
2022/08/16 11:59:20;;;;;;;5.35;1.98;;;;;;;29.03;29.20;99163.66;10399624;28;20139;-59
2022/08/16 12:04:26;;;;;;;3.47;1.92;;;;;;;29.30;29.30;99172.16;10398922;28;20119;-59
2022/08/16 12:09:29;;;;;;;6.93;1.90;;;;;;;29.82;28.31;99166.78;10398882;28;20056;-59
2022/08/16 12:14:32;;;;;;;5.97;1.80;;;;;;;30.10;27.42;99157.19;10398576;28;20057;-59
2022/08/16 12:19:38;;;;;;;4.88;1.90;;;;;;;29.79;27.10;99163.72;10398544;28;20076;-59
2022/08/16 12:24:39;;;;;;;3.78;1.77;;;;;;;29.79;27.16;99163.72;10398222;28;20085;-59
2022/08/16 12:29:43;;;;;;;5.57;1.92;;;;;;;29.34;27.74;99157.16;10396332;28;20537;-59
2022/08/16 12:34:46;;;;;;;4.97;1.92;;;;;;;29.31;27.48;99163.03;10398018;28;20161;-59
2022/08/16 12:39:57;;;;;;;3.60;1.70;;;;;;;29.63;27.42;99159.03;10396997;28;20060;-59
2022/08/16 12:45:00;;;;;;;4.82;1.70;;;;;;;29.93;27.35;99151.66;10396151;28;20053;-59
2022/08/16 12:50:06;;;;;;;3.38;1.88;;;;;;;30.03;27.07;99148.41;10397497;28;20049;-59
2022/08/16 12:55:11;;;;;;;4.25;1.92;;;;;;;30.13;26.18;99148.63;10397233;28;20107;-59
2022/08/16 13:00:17;;;;;;;3.53;1.73;;;;;;;30.10;26.55;99146.38;10396764;28;20428;-59
2022/08/16 13:05:39;;;;;;;5.93;1.73;;;;;;;30.45;26.35;99145.31;10397409;28;20052;-59
2022/08/16 13:10:54;;;;;;;4.57;1.70;;;;;;;30.44;25.49;99146.31;10396425;28;20056;-59
2022/08/16 13:15:58;;;;;;;3.95;1.90;;;;;;;30.38;25.24;99146.44;10396264;28;20473;-59
2022/08/16 13:21:06;;;;;;;4.88;1.75;;;;;;;30.34;25.25;99134.50;10395966;28;20088;-59
2022/08/16 13:26:11;;;;;;;5.13;1.88;;;;;;;30.48;24.94;99139.44;10396026;28;20107;-59
2022/08/16 13:31:18;;;;;;;3.58;1.70;;;;;;;30.46;25.98;99132.63;10395574;28;20049;-59
2022/08/16 13:36:19;;;;;;;4.60;1.85;;;;;;;30.72;25.07;99131.25;10395607;28;20091;-59
2022/08/16 13:41:42;;;;;;;4.03;1.83;;;;;;;30.86;24.87;99135.31;10395209;28;20136;-59
2022/08/16 13:46:46;;;;;;;3.10;1.83;;;;;;;30.55;25.38;99131.19;10395043;28;20144;-59
2022/08/16 13:51:48;;;;;;;4.72;1.70;;;;;;;30.52;25.61;99129.78;10393504;28;20145;-59
2022/08/16 13:56:50;;;;;;;5.05;1.90;;;;;;;30.36;26.09;99129.69;10394508;28;20062;-59
2022/08/16 14:01:57;;;;;;;3.05;1.70;;;;;;;29.67;26.83;99138.63;10395120;28;20490;-59
2022/08/16 14:07:06;;;;;;;4.83;2.37;;;;;;;29.30;27.33;99131.75;10394731;28;20057;-59
2022/08/16 14:12:21;;;;;;;5.20;2.08;;;;;;;29.23;27.75;99134.56;10394779;28;20191;-59
2022/08/16 14:17:24;;;;;;;5.45;2.20;;;;;;;29.19;27.79;99133.41;10393604;28;20139;-59
2022/08/16 14:22:31;;;;;;;3.35;1.70;;;;;;;29.18;27.64;99120.97;10393760;28;20131;-59
2022/08/16 14:27:40;;;;;;;4.97;2.00;;;;;;;29.29;27.82;99122.03;10393304;28;20049;-59
2022/08/16 14:32:43;;;;;;;4.18;1.70;;;;;;;29.69;26.55;99117.66;10393736;28;20136;-59
2022/08/16 14:37:51;;;;;;;4.32;2.13;;;;;;;29.74;26.00;99120.47;10393772;28;20389;-59
2022/08/16 14:42:57;;;;;;;3.80;1.75;;;;;;;29.88;25.38;99117.31;10392772;28;20045;-58
2022/08/16 14:48:07;;;;;;;5.40;2.10;;;;;;;29.85;24.99;99115.09;10393370;28;20059;-59
2022/08/16 14:53:09;;;;;;;4.03;1.88;;;;;;;29.54;25.72;99120.00;10393519;28;20517;-59
2022/08/16 14:58:11;;;;;;;4.45;2.00;;;;;;;29.51;25.86;99117.78;10392722;28;20136;-59
2022/08/16 15:03:24;;;;;;;4.13;1.80;;;;;;;29.53;26.11;99115.66;10399791;28;20048;-59
2022/08/16 15:08:27;;;;;;;4.70;2.10;;;;;;;29.43;26.70;99112.72;10406496;28;20140;-59
2022/08/16 15:13:39;;;;;;;6.10;1.90;;;;;;;29.29;26.77;99106.72;10405907;28;20057;-59
2022/08/16 15:18:41;;;;;;;6.30;2.28;;;;;;;29.09;26.92;99111.59;10406226;28;20049;-59
2022/08/16 15:23:47;;;;;;;5.32;1.80;;;;;;;28.99;27.54;99111.34;10405973;28;20053;-59
2022/08/16 15:28:50;;;;;;;3.83;1.90;;;;;;;29.02;27.84;99111.69;10405464;28;20520;-59
2022/08/16 15:33:52;;;;;;;5.80;1.90;;;;;;;28.94;28.00;99114.72;10405721;28;20163;-59
2022/08/16 15:38:59;;;;;;;4.63;1.90;;;;;;;29.42;27.13;99114.59;10405916;28;20130;-59
2022/08/16 15:44:23;;;;;;;3.33;1.80;;;;;;;29.88;26.81;99111.94;10405857;28;20050;-59
2022/08/16 15:49:26;;;;;;;3.17;1.70;;;;;;;30.02;26.18;99117.91;10405307;28;20493;-59
2022/08/16 15:54:39;;;;;;;4.35;2.22;;;;;;;30.04;26.22;99123.88;10404222;28;20060;-58
2022/08/16 15:59:53;;;;;;;3.50;1.90;;;;;;;30.14;26.37;99118.72;10404997;28;20154;-58
2022/08/16 16:05:06;;;;;;;2.58;1.55;;;;;;;30.27;25.52;99123.03;10405507;28;20050;-58
2022/08/16 16:10:10;;;;;;;3.55;1.80;;;;;;;30.22;25.29;99115.66;10404934;28;20111;-58
2022/08/16 16:15:17;;;;;;;3.03;1.77;;;;;;;30.41;25.75;99113.63;10400237;28;20109;-59
2022/08/16 16:20:24;;;;;;;3.40;1.98;;;;;;;30.26;25.80;99110.59;10398665;28;20100;-59
2022/08/16 16:25:30;;;;;;;2.92;1.73;;;;;;;30.38;25.62;99114.06;10398199;28;20490;-58
2022/08/16 16:30:32;;;;;;;6.80;1.80;;;;;;;30.13;25.75;99111.66;10397871;28;20405;-58
2022/08/16 16:35:45;;;;;;;5.05;1.85;;;;;;;30.03;25.61;99114.16;10397863;28;20065;-58
2022/08/16 16:40:57;;;;;;;3.65;1.80;;;;;;;29.99;26.13;99107.59;10397953;28;20076;-58
2022/08/16 16:45:59;;;;;;;4.50;1.80;;;;;;;29.86;26.03;99105.94;10397641;28;20434;-59
2022/08/16 16:51:04;;;;;;;3.20;1.63;;;;;;;29.75;26.21;99106.75;10396476;28;20128;-60
2022/08/16 16:56:11;;;;;;;3.90;1.90;;;;;;;29.72;26.95;99114.50;10396873;28;20064;-60
2022/08/16 17:01:23;;;;;;;4.78;1.90;;;;;;;29.54;26.50;99118.13;10396928;28;20103;-59
2022/08/16 17:06:45;;;;;;;5.70;2.10;;;;;;;29.37;26.83;99119.84;10396884;28;20067;-59
2022/08/16 17:11:58;;;;;;;5.45;1.90;;;;;;;29.39;26.73;99119.63;10396521;28;20409;-59
2022/08/16 17:17:07;;;;;;;3.08;1.70;;;;;;;29.30;26.59;99112.91;10396350;28;20081;-59
2022/08/16 17:22:12;;;;;;;3.00;1.80;;;;;;;29.23;26.51;99113.03;10396112;28;20457;-59
2022/08/16 17:27:15;;;;;;;3.20;1.75;;;;;;;29.01;26.97;99107.34;10394746;28;20153;-59
2022/08/16 17:32:37;;;;;;;4.25;1.80;;;;;;;28.91;27.33;99111.66;10395637;28;20053;-59
2022/08/16 17:37:49;;;;;;;4.88;1.95;;;;;;;28.85;27.32;99110.69;10395366;28;20065;-59
2022/08/16 17:43:13;;;;;;;4.22;2.00;;;;;;;28.70;27.88;99112.13;10395363;28;20459;-59
2022/08/16 17:48:15;;;;;;;6.82;2.05;;;;;;;28.70;28.23;99118.34;10394867;28;20061;-59
2022/08/16 17:53:17;;;;;;;6.90;1.88;;;;;;;28.68;28.15;99119.59;10394883;28;20124;-60
2022/08/16 17:58:19;;;;;;;5.30;2.00;;;;;;;28.47;28.66;99123.59;10394786;28;20599;-59
2022/08/16 18:03:36;;;;;;;4.07;1.88;;;;;;;28.33;28.82;99124.81;10394713;28;20400;-59
2022/08/16 18:08:58;;;;;;;6.40;1.85;;;;;;;28.13;29.01;99124.19;10394204;28;20490;-59
2022/08/16 18:14:05;;;;;;;4.00;1.95;;;;;;;27.95;29.42;99130.34;10392944;28;20157;-59
2022/08/16 18:19:07;;;;;;;6.53;1.90;;;;;;;27.81;29.92;99133.41;10394036;28;20081;-59
2022/08/16 18:24:13;;;;;;;6.10;2.00;;;;;;;27.59;30.79;99130.25;10394140;28;20084;-59
2022/08/16 18:29:16;;;;;;;8.55;2.10;;;;;;;27.22;31.55;99137.38;10393931;28;20480;-60
2022/08/16 18:34:19;;;;;;;5.82;2.25;;;;;;;26.91;32.09;99140.03;10393027;28;20054;-59
2022/08/16 18:39:21;;;;;;;4.28;2.00;;;;;;;26.68;32.85;99145.09;10392234;28;20136;-59
2022/08/16 18:44:23;;;;;;;5.10;2.15;;;;;;;26.30;33.20;99147.69;10393854;28;20084;-59
2022/08/16 18:49:33;;;;;;;6.43;2.10;;;;;;;26.05;33.06;99156.63;10391589;28;20089;-59
2022/08/16 18:54:35;;;;;;;5.32;2.30;;;;;;;25.62;33.92;99162.41;10392696;28;20554;-59
2022/08/16 18:59:57;;;;;;;4.57;2.30;;;;;;;25.39;34.31;99158.47;10392469;28;20433;-59
2022/08/16 19:04:58;;;;;;;9.55;2.35;;;;;;;25.12;34.54;99164.81;10392605;28;20081;-59
2022/08/16 19:10:01;;;;;;;3.20;2.10;;;;;;;24.96;35.29;99174.03;10392569;28;20442;-59
2022/08/16 19:15:06;;;;;;;6.78;2.45;;;;;;;24.81;35.56;99186.75;10392753;28;20085;-59
2022/08/16 19:20:21;;;;;;;6.43;2.30;;;;;;;24.60;36.38;99184.16;10392333;28;20053;-59
2022/08/16 19:25:24;;;;;;;5.05;2.55;;;;;;;24.47;36.53;99192.13;10392098;28;20103;-59
2022/08/16 19:30:46;;;;;;;7.53;2.55;;;;;;;24.26;36.74;99193.88;10391982;28;20429;-59
2022/08/16 19:35:49;;;;;;;4.97;2.30;;;;;;;24.12;37.39;99202.00;10391895;28;20093;-59
2022/08/16 19:40:51;;;;;;;8.05;2.50;;;;;;;23.99;37.87;99204.53;10391943;28;20611;-59
2022/08/16 19:45:55;;;;;;;10.00;2.60;;;;;;;23.96;38.06;99203.06;10392746;28;20140;-59
2022/08/16 19:50:56;;;;;;;3.72;2.40;;;;;;;23.83;38.02;99210.19;10396733;28;20361;-59
2022/08/16 19:55:58;;;;;;;4.40;2.60;;;;;;;23.67;38.41;99210.44;10399656;28;20311;-60
2022/08/16 20:01:00;;;;;;;3.95;2.60;;;;;;;23.63;39.37;99214.53;10398088;28;20555;-60
2022/08/16 20:06:02;;;;;;;4.57;2.40;;;;;;;23.66;39.40;99227.47;10397768;28;20128;-58
2022/08/16 20:11:04;;;;;;;5.78;2.40;;;;;;;23.23;40.22;99234.63;10399044;28;20524;-58
2022/08/16 20:16:06;;;;;;;4.63;2.45;;;;;;;22.99;40.48;99237.63;10398774;28;20128;-58
2022/08/16 20:21:08;;;;;;;4.35;2.50;;;;;;;23.08;40.40;99244.53;10398277;28;20084;-58
2022/08/16 20:26:09;;;;;;;7.43;2.85;;;;;;;23.11;40.37;99252.13;10398429;28;20065;-58
2022/08/16 20:31:11;;;;;;;4.43;2.67;;;;;;;23.07;40.62;99261.53;10398471;28;20088;-58
2022/08/16 20:36:13;;;;;;;4.68;2.40;;;;;;;22.69;41.52;99266.16;10397962;28;20132;-59
2022/08/16 20:41:17;;;;;;;7.47;2.70;;;;;;;22.68;41.49;99265.31;10397756;28;20084;-59
2022/08/16 20:46:19;;;;;;;4.93;2.45;;;;;;;22.71;41.53;99282.78;10398042;28;20141;-60
2022/08/16 20:51:21;;;;;;;5.13;2.78;;;;;;;22.56;41.54;99280.13;10397190;28;20513;-59
2022/08/16 20:56:22;;;;;;;6.40;2.70;;;;;;;22.05;42.82;99286.31;10397101;28;20080;-60
2022/08/16 21:01:24;;;;;;;4.80;2.60;;;;;;;22.16;42.74;99293.88;10396623;28;20084;-59
2022/08/16 21:06:50;;;;;;;5.95;2.50;;;;;;;21.95;42.89;99296.34;10397271;28;20077;-59
2022/08/16 21:11:57;;;;;;;6.70;2.63;;;;;;;21.80;43.13;99290.16;10396741;28;20085;-60
2022/08/16 21:17:01;;;;;;;4.65;2.78;;;;;;;21.87;43.26;99299.06;10395091;28;20126;-59
2022/08/16 21:22:15;;;;;;;5.28;2.70;;;;;;;21.78;43.52;99310.81;10396034;28;20103;-59
2022/08/16 21:27:17;;;;;;;5.00;2.70;;;;;;;21.64;43.50;99303.59;10395478;28;20164;-59
2022/08/16 21:32:23;;;;;;;7.47;2.88;;;;;;;21.63;43.81;99308.09;10395807;28;20073;-59
2022/08/16 21:37:36;;;;;;;7.13;2.80;;;;;;;21.34;43.93;99307.09;10396143;28;20065;-59
2022/08/16 21:42:40;;;;;;;6.75;2.70;;;;;;;21.07;44.86;99305.69;10395934;28;20089;-59
2022/08/16 21:47:42;;;;;;;6.15;2.90;;;;;;;21.28;44.37;99310.41;10395580;28;20330;-59
2022/08/16 21:52:44;;;;;;;6.55;2.50;;;;;;;21.27;44.66;99306.13;10394974;28;20137;-61
2022/08/16 21:57:48;;;;;;;5.40;2.78;;;;;;;21.01;45.15;99312.53;10394981;28;20057;-58
2022/08/16 22:02:53;;;;;;;6.15;3.00;;;;;;;20.99;45.24;99314.56;10394447;28;20084;-58
2022/08/16 22:07:55;;;;;;;7.63;3.17;;;;;;;20.79;45.62;99315.97;10392920;28;20171;-58
2022/08/16 22:13:13;;;;;;;6.25;3.03;;;;;;;20.72;46.22;99316.81;10393566;28;20288;-58
2022/08/16 22:18:15;;;;;;;5.00;2.85;;;;;;;20.45;46.58;99312.72;10392937;28;20057;-58
2022/08/16 22:23:21;;;;;;;5.28;3.20;;;;;;;20.59;46.72;99316.50;10394328;28;20571;-59
2022/08/16 22:28:23;;;;;;;6.10;3.10;;;;;;;20.55;46.53;99312.50;10393257;28;20145;-58
2022/08/16 22:33:26;;;;;;;4.40;3.00;;;;;;;20.20;46.99;99313.72;10393793;28;20141;-59
2022/08/16 22:38:28;;;;;;;4.85;3.00;;;;;;;20.09;47.59;99319.41;10393302;28;20088;-59
2022/08/16 22:43:50;;;;;;;6.03;3.20;;;;;;;20.29;47.39;99318.84;10393816;28;20050;-59
2022/08/16 22:48:52;;;;;;;5.18;3.30;;;;;;;19.97;47.79;99316.22;10393151;28;20079;-59
2022/08/16 22:53:55;;;;;;;6.15;3.53;;;;;;;20.09;47.85;99314.91;10392524;28;20092;-59
2022/08/16 22:58:57;;;;;;;4.00;2.80;;;;;;;20.18;47.51;99319.22;10392413;28;20382;-59
2022/08/16 23:03:59;;;;;;;4.35;2.92;;;;;;;20.13;47.64;99316.22;10393047;28;20088;-59
2022/08/16 23:09:02;;;;;;;5.43;3.00;;;;;;;20.06;47.84;99306.44;10392547;28;20177;-59
2022/08/16 23:14:04;;;;;;;4.50;3.28;;;;;;;19.84;48.33;99304.47;10392645;28;20128;-59
2022/08/16 23:19:11;;;;;;;4.97;3.10;;;;;;;19.65;49.04;99315.34;10392352;28;20469;-59
2022/08/16 23:24:14;;;;;;;5.07;3.50;;;;;;;19.56;48.94;99330.44;10396291;28;20132;-59
2022/08/16 23:29:20;;;;;;;6.03;3.45;;;;;;;19.50;49.09;99317.00;10400448;28;20061;-59
2022/08/16 23:34:27;;;;;;;12.85;3.78;;;;;;;19.64;49.25;99303.09;10400583;28;20128;-59
2022/08/16 23:39:29;;;;;;;5.68;3.42;;;;;;;19.60;48.92;99304.41;10382528;28;20091;-59
2022/08/16 23:44:31;;;;;;;4.68;3.03;;;;;;;19.67;48.93;99305.41;10399802;28;20052;-59